CY-0003 weather

Pınarbaşı Air Base
Kyrenia District, Cyprus

Public forecast

Using degrees Celsius for public forecast. Weather courtesy of forecast.io.

METAR (pilot weather report)

Closest report is Ercan International Airport, 13.4 nm (24.8 km) ESE. Retrieved 2019/06/15 21:20 UTC (35 minutes ago):

LCEN 152120Z 26004KT 9999 FEW025 23/19 Q1007 NOSIG

TAF (pilot weather forecast)

Forecast is more than 6 hours old.

Closest forecast is Ercan International Airport, 13.4 nm (24.8 km) ESE. Retrieved 2019/06/15 12:00 UTC (10 hours ago):

TAF LCEN 151040Z 1512/1612 18015KT 9999 FEW025 TEMPO 1512/1515 5000 TSRA FEW020CB BKN025